Time;durP1;ratioP1;P1;durP2;ratioP2;P2;SDS_P1;SDS_P2;PMS_P1;PMS_P2;Temp;Humidity;BMP_temperature;BMP_pressure;BME280_temperature;BME280_humidity;BME280_pressure;Samples;Min_cycle;Max_cycle;Signal;HPM_P1;HPM_P2
2023/03/13 00:02:22;;;;;;;;;;;23.40;68.00;;;;;;5066805;28;19947;-68
2023/03/13 00:04:49;;;;;;;;;;;23.40;67.40;;;;;;5068996;28;20364;-69
2023/03/13 00:07:16;;;;;;;;;;;23.50;68.70;;;;;;5067885;28;19948;-66
2023/03/13 00:09:43;;;;;;;;;;;23.40;67.50;;;;;;5070508;28;19912;-68
2023/03/13 00:12:09;;;;;;;;;;;23.40;66.90;;;;;;5072718;28;20016;-68
2023/03/13 00:14:36;;;;;;;;;;;23.40;68.60;;;;;;5068434;28;19924;-68
2023/03/13 00:17:03;;;;;;;;;;;23.40;67.70;;;;;;5073645;28;19912;-68
2023/03/13 00:19:29;;;;;;;;;;;23.50;69.00;;;;;;5075302;28;19964;-68
2023/03/13 00:21:56;;;;;;;;;;;23.50;68.60;;;;;;5071974;28;19916;-67
2023/03/13 00:24:23;;;;;;;;;;;23.40;67.30;;;;;;5041115;28;19913;-68
2023/03/13 00:26:49;;;;;;;;;;;23.40;66.80;;;;;;5057096;28;19923;-68
2023/03/13 00:29:16;;;;;;;;;;;23.50;67.10;;;;;;5071714;28;20287;-68
2023/03/13 00:31:43;;;;;;;;;;;23.40;66.10;;;;;;5081698;28;19920;-68
2023/03/13 00:34:10;;;;;;;;;;;23.40;67.30;;;;;;5075960;28;19968;-69
2023/03/13 00:36:36;;;;;;;;;;;23.40;67.60;;;;;;5076541;28;19966;-69
2023/03/13 00:39:04;;;;;;;;;;;23.40;67.50;;;;;;5073736;28;19971;-68
2023/03/13 00:41:31;;;;;;;;;;;23.50;67.00;;;;;;5053057;28;19923;-70
2023/03/13 00:43:58;;;;;;;;;;;23.50;67.30;;;;;;5071504;28;20318;-68
2023/03/13 07:04:15;;;;;;;;;;;23.30;67.20;;;;;;5060971;28;19981;-72
2023/03/13 07:06:42;;;;;;;;;;;23.30;68.00;;;;;;5071285;28;19932;-71
2023/03/13 07:09:09;;;;;;;;;;;23.30;68.20;;;;;;5078458;28;19916;-71
2023/03/13 07:11:36;;;;;;;;;;;23.30;68.50;;;;;;5092173;28;19912;-72
2023/03/13 07:14:03;;;;;;;;;;;23.30;68.60;;;;;;5069560;28;21260;-71
2023/03/13 07:16:30;;;;;;;;;;;23.20;69.20;;;;;;5096562;28;19916;-72
2023/03/13 07:18:56;;;;;;;;;;;23.10;69.40;;;;;;5094516;28;19924;-71
2023/03/13 07:21:23;;;;;;;;;;;23.10;70.70;;;;;;5087217;28;20316;-71
2023/03/13 07:23:50;;;;;;;;;;;23.10;71.70;;;;;;5082853;28;19916;-74
2023/03/13 07:26:16;;;;;;;;;;;23.00;71.60;;;;;;5087420;28;20007;-73
2023/03/13 07:28:43;;;;;;;;;;;23.00;71.90;;;;;;5087382;28;19993;-72
2023/03/13 07:31:14;;;;;;;;;;;23.10;72.10;;;;;;5084561;28;20342;-71
2023/03/13 07:33:41;;;;;;;;;;;23.10;71.60;;;;;;5102247;28;19920;-71
2023/03/13 07:36:08;;;;;;;;;;;23.00;72.00;;;;;;5087413;28;19977;-72
2023/03/13 07:38:34;;;;;;;;;;;23.00;71.60;;;;;;5087945;28;19920;-68
2023/03/13 07:41:01;;;;;;;;;;;23.00;72.00;;;;;;5103187;28;20338;-68
2023/03/13 07:43:30;;;;;;;;;;;23.00;71.70;;;;;;5069818;28;20617;-68
2023/03/13 07:46:00;;;;;;;;;;;23.00;72.00;;;;;;5093633;28;20255;-68
2023/03/13 07:48:34;;;;;;;;;;;23.00;71.90;;;;;;5068894;28;19954;-68
2023/03/13 07:51:01;;;;;;;;;;;23.00;71.10;;;;;;5056301;28;19977;-68
2023/03/13 07:53:27;;;;;;;;;;;22.90;71.50;;;;;;5088632;28;20397;-69
2023/03/13 07:56:01;;;;;;;;;;;22.90;71.50;;;;;;5067006;28;20477;-68
2023/03/13 07:58:29;;;;;;;;;;;22.90;71.60;;;;;;5062169;28;20275;-68
2023/03/13 08:00:55;;;;;;;;;;;22.90;72.10;;;;;;5086867;28;20378;-74
2023/03/13 08:03:22;;;;;;;;;;;22.90;72.10;;;;;;5102438;28;19998;-71
2023/03/13 08:05:59;;;;;;;;;;;22.80;72.30;;;;;;5084668;28;19928;-72
2023/03/13 08:08:25;;;;;;;;;;;22.80;72.50;;;;;;5087835;28;20402;-71
2023/03/13 08:10:52;;;;;;;;;;;22.80;72.30;;;;;;5092730;28;20472;-71
2023/03/13 08:13:19;;;;;;;;;;;22.80;71.90;;;;;;5099557;28;19915;-69
2023/03/13 08:15:46;;;;;;;;;;;22.80;72.80;;;;;;5090722;28;19923;-67
2023/03/13 08:18:12;;;;;;;;;;;22.80;72.70;;;;;;5071540;28;19985;-70
2023/03/13 08:20:39;;;;;;;;;;;22.80;72.90;;;;;;5086581;28;20309;-69
2023/03/13 08:23:06;;;;;;;;;;;22.80;73.20;;;;;;5101684;28;19912;-68
2023/03/13 08:25:32;;;;;;;;;;;22.80;74.00;;;;;;5089192;28;20006;-76
2023/03/13 08:27:59;;;;;;;;;;;22.80;74.20;;;;;;5098171;28;19915;-69
2023/03/13 08:30:26;;;;;;;;;;;22.80;73.50;;;;;;5094313;28;19919;-66
2023/03/13 08:32:52;;;;;;;;;;;22.80;73.50;;;;;;5090040;28;19919;-67
2023/03/13 08:35:19;;;;;;;;;;;22.80;73.70;;;;;;5098409;28;20392;-67
2023/03/13 08:37:46;;;;;;;;;;;22.80;73.10;;;;;;5097894;28;19923;-68
2023/03/13 08:40:13;;;;;;;;;;;22.80;72.40;;;;;;5093950;28;19977;-68
2023/03/13 08:42:39;;;;;;;;;;;22.80;72.60;;;;;;5092691;28;20010;-68
2023/03/13 08:45:06;;;;;;;;;;;22.80;72.90;;;;;;5092644;28;19916;-66
2023/03/13 08:47:33;;;;;;;;;;;22.80;73.40;;;;;;5094372;28;20732;-67
2023/03/13 08:50:00;;;;;;;;;;;22.80;72.80;;;;;;5094963;28;20692;-67
2023/03/13 08:52:27;;;;;;;;;;;22.80;73.10;;;;;;5091175;28;19912;-66
2023/03/13 08:54:54;;;;;;;;;;;22.80;72.30;;;;;;5100521;28;19931;-67
2023/03/13 08:57:21;;;;;;;;;;;22.80;72.20;;;;;;5078964;28;19917;-67
2023/03/13 08:59:49;;;;;;;;;;;22.80;71.60;;;;;;5104733;28;20020;-67
2023/03/13 09:02:18;;;;;;;;;;;22.90;70.90;;;;;;5098225;28;19954;-67
2023/03/13 09:04:46;;;;;;;;;;;22.90;70.60;;;;;;5092957;28;20074;-66
2023/03/13 09:07:13;;;;;;;;;;;22.90;70.30;;;;;;5089779;28;19987;-67
2023/03/13 09:09:40;;;;;;;;;;;22.90;69.80;;;;;;5098119;28;20392;-68
2023/03/13 09:12:07;;;;;;;;;;;22.90;69.50;;;;;;5088856;28;19917;-67
2023/03/13 09:14:33;;;;;;;;;;;22.90;69.00;;;;;;5110318;28;19931;-67
2023/03/13 09:17:00;;;;;;;;;;;22.90;69.00;;;;;;5092686;28;19964;-67
2023/03/13 09:19:27;;;;;;;;;;;22.90;68.30;;;;;;5100694;28;20358;-67
2023/03/13 09:21:54;;;;;;;;;;;22.90;68.80;;;;;;5096704;28;19916;-68
2023/03/13 09:24:20;;;;;;;;;;;22.90;68.80;;;;;;5109587;28;20285;-68
2023/03/13 09:26:47;;;;;;;;;;;22.90;68.90;;;;;;5097243;28;20309;-67
2023/03/13 09:29:14;;;;;;;;;;;22.90;68.90;;;;;;5091269;28;20259;-69
2023/03/13 10:16:14;;;;;;;;;;;22.80;68.70;;;;;;5042854;28;19990;-68
2023/03/13 10:18:42;;;;;;;;;;;22.80;68.40;;;;;;5031895;28;20613;-67
2023/03/13 10:21:32;;;;;;;;;;;22.80;69.40;;;;;;5055002;28;19921;-69
2023/03/13 10:24:08;;;;;;;;;;;22.80;69.60;;;;;;5050174;28;19916;-69
2023/03/13 10:26:35;;;;;;;;;;;22.80;69.50;;;;;;5044668;28;19924;-69
2023/03/13 10:29:14;;;;;;;;;;;22.80;68.60;;;;;;5046410;28;19913;-70
2023/03/13 10:31:41;;;;;;;;;;;22.80;68.40;;;;;;5061201;28;19917;-69
2023/03/13 10:34:08;;;;;;;;;;;22.80;69.00;;;;;;5030671;28;19932;-69
2023/03/13 10:36:42;;;;;;;;;;;22.80;68.30;;;;;;5078446;28;19924;-70
2023/03/13 10:39:14;;;;;;;;;;;22.80;68.20;;;;;;5045876;28;19923;-69
2023/03/13 10:41:40;;;;;;;;;;;22.80;68.10;;;;;;5080731;28;19920;-69
2023/03/13 10:44:17;;;;;;;;;;;22.80;68.30;;;;;;5046382;28;20315;-68
2023/03/13 10:46:44;;;;;;;;;;;22.80;66.50;;;;;;5045006;28;19913;-70
2023/03/13 10:49:29;;;;;;;;;;;22.80;66.70;;;;;;5043072;28;19919;-69
2023/03/13 10:51:58;;;;;;;;;;;22.70;66.90;;;;;;5048998;28;20389;-69
2023/03/13 10:54:26;;;;;;;;;;;22.70;66.90;;;;;;5046632;28;19921;-68
2023/03/13 10:57:06;;;;;;;;;;;22.70;67.70;;;;;;5055251;28;20386;-69
2023/03/13 10:59:33;;;;;;;;;;;22.70;67.50;;;;;;5057081;28;19952;-69
2023/03/13 11:02:00;;;;;;;;;;;22.70;67.70;;;;;;5071834;28;19917;-70
2023/03/13 11:04:36;;;;;;;;;;;22.70;68.00;;;;;;5057555;28;19916;-68
2023/03/13 11:07:11;;;;;;;;;;;22.70;67.80;;;;;;5064927;28;19958;-68
2023/03/13 11:09:38;;;;;;;;;;;22.70;67.20;;;;;;5080159;28;20003;-68
2023/03/13 11:12:06;;;;;;;;;;;22.70;68.40;;;;;;5072794;28;20286;-69
2023/03/13 11:14:34;;;;;;;;;;;22.80;67.60;;;;;;5061893;28;20015;-70
2023/03/13 14:09:23;;;;;;;;;;;22.60;73.30;;;;;;5061719;28;19962;-68
2023/03/13 14:11:49;;;;;;;;;;;22.60;73.50;;;;;;5051099;28;19967;-68
2023/03/13 14:14:16;;;;;;;;;;;22.60;73.20;;;;;;5051491;28;19974;-68
2023/03/13 14:16:46;;;;;;;;;;;22.50;72.80;;;;;;5051740;28;19916;-68
2023/03/13 14:19:26;;;;;;;;;;;22.60;73.30;;;;;;5049194;28;19956;-68
2023/03/13 14:22:03;;;;;;;;;;;22.60;72.70;;;;;;5051776;28;19956;-68
2023/03/13 14:24:30;;;;;;;;;;;22.60;72.30;;;;;;5053607;28;19963;-68
2023/03/13 14:26:57;;;;;;;;;;;22.60;72.50;;;;;;5048859;28;19959;-67
2023/03/13 14:29:26;;;;;;;;;;;22.60;72.60;;;;;;5052391;28;20275;-68
2023/03/13 14:31:54;;;;;;;;;;;22.60;72.90;;;;;;5051547;28;19912;-68
2023/03/13 14:34:21;;;;;;;;;;;22.60;72.80;;;;;;5066476;28;19928;-68
2023/03/13 14:36:54;;;;;;;;;;;22.60;72.70;;;;;;5065415;28;19960;-68
2023/03/13 14:39:35;;;;;;;;;;;22.60;72.70;;;;;;5083338;28;20000;-67
2023/03/13 14:42:05;;;;;;;;;;;22.50;72.50;;;;;;5057803;28;19968;-67
2023/03/13 14:44:35;;;;;;;;;;;22.50;72.80;;;;;;5051481;28;19953;-68
2023/03/13 14:47:06;;;;;;;;;;;22.50;73.00;;;;;;5065153;28;19920;-68
2023/03/13 14:49:33;;;;;;;;;;;22.50;72.80;;;;;;5051154;28;19999;-68
2023/03/13 14:52:15;;;;;;;;;;;22.50;73.10;;;;;;5066929;28;19913;-68
2023/03/13 14:55:11;;;;;;;;;;;22.50;73.10;;;;;;5047565;28;20011;-68
2023/03/13 14:57:40;;;;;;;;;;;22.50;73.30;;;;;;5043730;28;19912;-68
2023/03/13 15:00:25;;;;;;;;;;;22.50;72.90;;;;;;5050069;28;19944;-67
2023/03/13 15:02:51;;;;;;;;;;;22.50;73.30;;;;;;5060976;28;19908;-67
2023/03/13 15:05:30;;;;;;;;;;;22.50;73.40;;;;;;5066754;28;19912;-68
2023/03/13 15:07:57;;;;;;;;;;;22.50;72.90;;;;;;5050043;28;19912;-68
2023/03/13 15:10:35;;;;;;;;;;;22.50;73.00;;;;;;5072724;28;19986;-67
2023/03/13 15:13:15;;;;;;;;;;;22.50;73.20;;;;;;5078074;28;19957;-68
2023/03/13 15:15:42;;;;;;;;;;;22.50;73.00;;;;;;5103127;28;19916;-68
2023/03/13 15:18:12;;;;;;;;;;;22.50;73.30;;;;;;5094396;28;19915;-68
2023/03/13 15:20:39;;;;;;;;;;;22.50;73.30;;;;;;5091283;28;19911;-68
2023/03/13 15:23:05;;;;;;;;;;;22.50;73.40;;;;;;5079955;28;20405;-67
2023/03/13 15:25:32;;;;;;;;;;;22.50;73.70;;;;;;5078276;28;19916;-68
2023/03/13 15:27:59;;;;;;;;;;;22.50;73.50;;;;;;5106325;28;19952;-67
2023/03/13 15:30:25;;;;;;;;;;;22.50;73.60;;;;;;5101263;28;19915;-68
2023/03/13 15:32:52;;;;;;;;;;;22.50;73.70;;;;;;5106821;28;19912;-68
2023/03/13 15:35:26;;;;;;;;;;;22.50;74.00;;;;;;5097459;28;19963;-67
2023/03/13 15:37:52;;;;;;;;;;;22.50;74.20;;;;;;5101230;28;19990;-68
2023/03/13 15:40:19;;;;;;;;;;;22.50;74.70;;;;;;5117793;28;20366;-68
2023/03/13 15:42:46;;;;;;;;;;;22.50;74.80;;;;;;5081785;28;19919;-68
2023/03/13 15:45:13;;;;;;;;;;;22.50;75.00;;;;;;5107516;28;19995;-68
2023/03/13 15:47:39;;;;;;;;;;;22.50;75.30;;;;;;5113519;27;19958;-68
2023/03/13 15:50:12;;;;;;;;;;;22.40;75.20;;;;;;5109729;28;20011;-68
2023/03/13 15:52:39;;;;;;;;;;;22.50;75.30;;;;;;5093327;28;19912;-67
2023/03/13 15:55:08;;;;;;;;;;;22.50;75.50;;;;;;5105773;28;19927;-67
2023/03/13 15:57:35;;;;;;;;;;;22.40;75.90;;;;;;5096395;28;19916;-68
2023/03/13 16:00:05;;;;;;;;;;;22.40;76.60;;;;;;5079826;28;19912;-67
2023/03/13 16:02:32;;;;;;;;;;;22.40;76.50;;;;;;5079300;28;19912;-67
2023/03/13 16:04:58;;;;;;;;;;;22.40;76.80;;;;;;5098220;28;20370;-68
2023/03/13 17:07:59;;;;;;;;;;;22.00;81.50;;;;;;5079281;28;20424;-67
2023/03/13 17:10:30;;;;;;;;;;;22.00;81.30;;;;;;5098948;28;19964;-67
2023/03/13 17:12:56;;;;;;;;;;;22.00;82.00;;;;;;5083815;28;19908;-67
2023/03/13 17:15:23;;;;;;;;;;;22.00;82.40;;;;;;5098818;28;20006;-66
2023/03/13 17:17:50;;;;;;;;;;;22.00;83.20;;;;;;5121351;27;19912;-67
2023/03/13 17:20:18;;;;;;;;;;;22.00;82.70;;;;;;5096183;28;19908;-66
2023/03/13 17:22:45;;;;;;;;;;;22.00;83.50;;;;;;5089996;28;20019;-66
2023/03/13 17:25:11;;;;;;;;;;;22.00;83.70;;;;;;5079830;28;20413;-67
2023/03/13 17:27:38;;;;;;;;;;;22.00;84.20;;;;;;5109978;28;19963;-67
2023/03/13 17:30:22;;;;;;;;;;;22.10;84.40;;;;;;5124700;27;19912;-67
2023/03/13 17:32:49;;;;;;;;;;;22.10;84.50;;;;;;5086124;28;19918;-67
2023/03/13 17:35:16;;;;;;;;;;;22.10;84.90;;;;;;5096013;28;19916;-67
2023/03/13 17:37:43;;;;;;;;;;;22.10;84.80;;;;;;5084789;28;19911;-66
2023/03/13 17:40:17;;;;;;;;;;;22.10;84.70;;;;;;5079944;28;20006;-67
2023/03/13 17:42:43;;;;;;;;;;;22.10;85.00;;;;;;5059284;28;20007;-66
2023/03/13 17:45:11;;;;;;;;;;;22.10;85.10;;;;;;5091600;28;19938;-66
2023/03/13 17:47:37;;;;;;;;;;;22.00;84.60;;;;;;5091011;28;19916;-68
2023/03/13 17:50:27;;;;;;;;;;;22.00;84.60;;;;;;5087522;28;20274;-66
2023/03/13 17:52:54;;;;;;;;;;;22.10;84.40;;;;;;5091466;28;20524;-66
2023/03/13 17:55:20;;;;;;;;;;;22.00;84.50;;;;;;5097426;28;19924;-66
2023/03/13 17:57:47;;;;;;;;;;;22.10;84.10;;;;;;5101562;28;19916;-66
2023/03/13 18:00:22;;;;;;;;;;;22.10;83.80;;;;;;5104322;28;19912;-65
2023/03/13 18:02:48;;;;;;;;;;;22.00;84.20;;;;;;5111086;27;19920;-65
2023/03/13 18:05:15;;;;;;;;;;;22.00;84.80;;;;;;5111468;28;19916;-65
2023/03/13 18:07:45;;;;;;;;;;;21.90;85.40;;;;;;5097233;28;19924;-65
2023/03/13 18:10:15;;;;;;;;;;;21.80;85.80;;;;;;5072672;28;19924;-65
2023/03/13 18:12:42;;;;;;;;;;;21.70;86.40;;;;;;5077264;28;19930;-66
2023/03/13 18:15:09;;;;;;;;;;;21.60;86.50;;;;;;5117523;27;19923;-65
2023/03/13 18:17:36;;;;;;;;;;;21.60;87.10;;;;;;5103820;28;19920;-66
2023/03/13 18:20:04;;;;;;;;;;;21.50;87.30;;;;;;5087058;28;20005;-66
2023/03/13 18:22:30;;;;;;;;;;;21.50;87.80;;;;;;5072064;28;19923;-66
2023/03/13 18:24:57;;;;;;;;;;;21.40;87.60;;;;;;5104254;28;19927;-67
2023/03/13 18:27:24;;;;;;;;;;;21.40;87.50;;;;;;5088089;28;19912;-66
2023/03/13 18:29:50;;;;;;;;;;;21.30;88.40;;;;;;5094282;28;20018;-66
2023/03/13 18:32:17;;;;;;;;;;;21.30;88.00;;;;;;5088088;28;20022;-66
2023/03/13 18:34:44;;;;;;;;;;;21.30;88.40;;;;;;5062843;28;19927;-66
